sensor_id;sensor_type;location;lat;lon;timestamp;pressure;altitude;pressure_sealevel;temperature;humidity
19783;BME280;10051;40.294;-3.754;2023-06-10T00:02:03;93874.50;;;18.86;86.55
19783;BME280;10051;40.294;-3.754;2023-06-10T00:04:29;93980.88;;;19.60;87.11
19783;BME280;10051;40.294;-3.754;2023-06-10T00:06:55;94042.53;;;20.00;87.80
19783;BME280;10051;40.294;-3.754;2023-06-10T00:09:20;94008.22;;;19.86;87.00
19783;BME280;10051;40.294;-3.754;2023-06-10T00:11:49;94031.75;;;19.96;87.41
19783;BME280;10051;40.294;-3.754;2023-06-10T00:14:15;94030.44;;;19.90;87.96
19783;BME280;10051;40.294;-3.754;2023-06-10T00:16:40;94042.53;;;20.00;87.95
19783;BME280;10051;40.294;-3.754;2023-06-10T00:19:06;93971.47;;;19.51;88.03
19783;BME280;10051;40.294;-3.754;2023-06-10T00:21:34;94033.53;;;19.92;88.23
19783;BME280;10051;40.294;-3.754;2023-06-10T00:24:06;94036.56;;;19.90;89.00
19783;BME280;10051;40.294;-3.754;2023-06-10T00:26:32;93995.78;;;19.61;89.30
19783;BME280;10051;40.294;-3.754;2023-06-10T00:28:59;94031.22;;;19.90;88.41
19783;BME280;10051;40.294;-3.754;2023-06-10T00:31:24;94010.16;;;19.73;88.98
19783;BME280;10051;40.294;-3.754;2023-06-10T00:33:52;94004.97;;;19.64;89.88
19783;BME280;10051;40.294;-3.754;2023-06-10T00:36:18;94037.09;;;19.96;89.16
19783;BME280;10051;40.294;-3.754;2023-06-10T00:38:43;93996.88;;;19.60;89.88
19783;BME280;10051;40.294;-3.754;2023-06-10T00:41:09;94037.75;;;19.93;89.95
19783;BME280;10051;40.294;-3.754;2023-06-10T00:43:35;94048.34;;;19.89;90.10
19783;BME280;10051;40.294;-3.754;2023-06-10T00:46:01;93965.84;;;19.40;90.93
19783;BME280;10051;40.294;-3.754;2023-06-10T00:48:27;94039.88;;;19.87;90.80
19783;BME280;10051;40.294;-3.754;2023-06-10T00:50:53;94003.94;;;19.69;90.95
19783;BME280;10051;40.294;-3.754;2023-06-10T00:53:19;93989.06;;;19.68;90.46
19783;BME280;10051;40.294;-3.754;2023-06-10T00:55:46;93997.78;;;19.81;90.41
19783;BME280;10051;40.294;-3.754;2023-06-10T00:58:12;94018.94;;;20.02;90.01
19783;BME280;10051;40.294;-3.754;2023-06-10T01:00:38;93892.69;;;19.09;90.97
19783;BME280;10051;40.294;-3.754;2023-06-10T01:03:04;93986.16;;;19.73;91.45
19783;BME280;10051;40.294;-3.754;2023-06-10T01:05:36;93972.63;;;19.66;91.40
19783;BME280;10051;40.294;-3.754;2023-06-10T01:08:17;94009.91;;;19.78;92.45
19783;BME280;10051;40.294;-3.754;2023-06-10T01:10:56;94006.16;;;19.67;92.86
19783;BME280;10051;40.294;-3.754;2023-06-10T01:13:25;93987.66;;;19.58;92.53
19783;BME280;10051;40.294;-3.754;2023-06-10T01:15:57;93979.91;;;19.53;92.67
19783;BME280;10051;40.294;-3.754;2023-06-10T01:18:30;93989.66;;;19.61;92.47
19783;BME280;10051;40.294;-3.754;2023-06-10T01:20:56;93964.44;;;19.58;92.08
19783;BME280;10051;40.294;-3.754;2023-06-10T01:23:22;94006.91;;;19.80;92.51
19783;BME280;10051;40.294;-3.754;2023-06-10T01:26:02;93999.25;;;19.78;92.75
19783;BME280;10051;40.294;-3.754;2023-06-10T01:28:38;94010.34;;;19.80;92.53
19783;BME280;10051;40.294;-3.754;2023-06-10T01:31:46;94006.28;;;19.70;92.93
19783;BME280;10051;40.294;-3.754;2023-06-10T01:34:17;93980.69;;;19.53;93.68
19783;BME280;10051;40.294;-3.754;2023-06-10T01:36:48;93996.81;;;19.73;93.23
19783;BME280;10051;40.294;-3.754;2023-06-10T01:39:20;93916.28;;;19.23;92.63
19783;BME280;10051;40.294;-3.754;2023-06-10T01:41:48;93953.38;;;19.44;92.49
19783;BME280;10051;40.294;-3.754;2023-06-10T01:44:20;94000.97;;;19.86;91.86
19783;BME280;10051;40.294;-3.754;2023-06-10T01:46:45;93942.06;;;19.47;91.56
19783;BME280;10051;40.294;-3.754;2023-06-10T01:49:11;93987.63;;;19.86;91.51
19783;BME280;10051;40.294;-3.754;2023-06-10T01:51:40;93985.13;;;19.77;91.98
19783;BME280;10051;40.294;-3.754;2023-06-10T01:54:06;93953.00;;;19.58;91.88
19783;BME280;10051;40.294;-3.754;2023-06-10T01:56:32;93942.56;;;19.53;92.01
19783;BME280;10051;40.294;-3.754;2023-06-10T01:58:58;93880.22;;;19.13;92.45
19783;BME280;10051;40.294;-3.754;2023-06-10T02:01:28;93988.97;;;19.93;92.25
19783;BME280;10051;40.294;-3.754;2023-06-10T02:03:53;93987.06;;;19.93;92.31
19783;BME280;10051;40.294;-3.754;2023-06-10T02:06:19;93965.25;;;19.75;92.43
19783;BME280;10051;40.294;-3.754;2023-06-10T02:08:45;93895.91;;;19.30;92.34
19783;BME280;10051;40.294;-3.754;2023-06-10T02:11:10;93983.03;;;19.99;92.22
19783;BME280;10051;40.294;-3.754;2023-06-10T02:13:36;93946.72;;;19.66;92.35
19783;BME280;10051;40.294;-3.754;2023-06-10T02:16:01;93966.66;;;19.85;92.67
19783;BME280;10051;40.294;-3.754;2023-06-10T02:18:27;93962.31;;;19.80;92.68
19783;BME280;10051;40.294;-3.754;2023-06-10T02:20:53;93916.50;;;19.46;92.92
19783;BME280;10051;40.294;-3.754;2023-06-10T02:23:19;93981.94;;;19.88;93.47
19783;BME280;10051;40.294;-3.754;2023-06-10T02:25:45;93953.94;;;19.66;94.13
19783;BME280;10051;40.294;-3.754;2023-06-10T02:28:12;93976.53;;;19.84;94.16
19783;BME280;10051;40.294;-3.754;2023-06-10T02:30:41;93974.66;;;19.85;94.34
19783;BME280;10051;40.294;-3.754;2023-06-10T02:33:07;93984.75;;;19.91;94.01
19783;BME280;10051;40.294;-3.754;2023-06-10T02:35:38;93975.84;;;19.87;94.07
19783;BME280;10051;40.294;-3.754;2023-06-10T02:38:04;93944.59;;;19.72;93.49
19783;BME280;10051;40.294;-3.754;2023-06-10T02:40:29;93921.25;;;19.53;93.33
19783;BME280;10051;40.294;-3.754;2023-06-10T02:42:55;93939.66;;;19.58;93.92
19783;BME280;10051;40.294;-3.754;2023-06-10T02:45:20;93980.25;;;19.80;95.23
19783;BME280;10051;40.294;-3.754;2023-06-10T02:47:46;93965.50;;;19.70;95.27
19783;BME280;10051;40.294;-3.754;2023-06-10T02:50:12;93989.34;;;19.79;95.08
19783;BME280;10051;40.294;-3.754;2023-06-10T02:52:38;93982.56;;;19.81;94.33
19783;BME280;10051;40.294;-3.754;2023-06-10T02:55:04;93932.75;;;19.41;95.03
19783;BME280;10051;40.294;-3.754;2023-06-10T02:57:29;93995.19;;;19.68;96.32
19783;BME280;10051;40.294;-3.754;2023-06-10T02:59:55;93971.19;;;19.40;97.41
19783;BME280;10051;40.294;-3.754;2023-06-10T03:02:20;93912.56;;;18.99;98.21
19783;BME280;10051;40.294;-3.754;2023-06-10T03:04:47;93965.88;;;19.27;98.60
19783;BME280;10051;40.294;-3.754;2023-06-10T03:07:12;94000.25;;;19.45;98.82
19783;BME280;10051;40.294;-3.754;2023-06-10T03:09:39;93955.59;;;19.13;98.94
19783;BME280;10051;40.294;-3.754;2023-06-10T03:12:05;93971.72;;;19.17;99.03
19783;BME280;10051;40.294;-3.754;2023-06-10T03:14:31;94003.41;;;19.35;98.94
19783;BME280;10051;40.294;-3.754;2023-06-10T03:16:57;93938.09;;;18.87;99.19
19783;BME280;10051;40.294;-3.754;2023-06-10T03:19:22;93956.84;;;19.04;99.92
19783;BME280;10051;40.294;-3.754;2023-06-10T03:21:50;94006.94;;;19.39;99.07
19783;BME280;10051;40.294;-3.754;2023-06-10T03:24:20;93962.84;;;19.00;99.54
19783;BME280;10051;40.294;-3.754;2023-06-10T03:26:45;93956.66;;;18.96;99.91
19783;BME280;10051;40.294;-3.754;2023-06-10T03:29:11;93994.56;;;19.18;99.80
19783;BME280;10051;40.294;-3.754;2023-06-10T03:31:37;93971.16;;;19.11;99.52
19783;BME280;10051;40.294;-3.754;2023-06-10T03:34:04;93895.66;;;18.54;99.64
19783;BME280;10051;40.294;-3.754;2023-06-10T03:36:29;93965.09;;;18.98;100.00
19783;BME280;10051;40.294;-3.754;2023-06-10T03:38:55;93964.84;;;18.91;100.00
19783;BME280;10051;40.294;-3.754;2023-06-10T03:41:22;94020.22;;;19.23;100.00
19783;BME280;10051;40.294;-3.754;2023-06-10T03:43:48;94010.00;;;19.25;100.00
19783;BME280;10051;40.294;-3.754;2023-06-10T03:46:13;93974.28;;;19.01;100.00
19783;BME280;10051;40.294;-3.754;2023-06-10T03:48:40;94001.25;;;19.12;100.00
19783;BME280;10051;40.294;-3.754;2023-06-10T03:51:05;93960.09;;;18.84;100.00
19783;BME280;10051;40.294;-3.754;2023-06-10T03:53:31;94000.38;;;19.08;100.00
19783;BME280;10051;40.294;-3.754;2023-06-10T03:55:57;93922.06;;;18.59;100.00
19783;BME280;10051;40.294;-3.754;2023-06-10T03:58:22;93972.28;;;18.85;100.00
19783;BME280;10051;40.294;-3.754;2023-06-10T04:00:48;94002.59;;;19.06;100.00
19783;BME280;10051;40.294;-3.754;2023-06-10T04:03:14;93988.63;;;18.96;100.00
19783;BME280;10051;40.294;-3.754;2023-06-10T04:05:41;93996.13;;;18.94;100.00
19783;BME280;10051;40.294;-3.754;2023-06-10T04:08:07;94012.69;;;19.12;100.00
19783;BME280;10051;40.294;-3.754;2023-06-10T04:10:33;93990.97;;;18.98;100.00
19783;BME280;10051;40.294;-3.754;2023-06-10T04:12:59;93884.50;;;18.23;100.00
19783;BME280;10051;40.294;-3.754;2023-06-10T04:15:25;93947.69;;;18.64;100.00
19783;BME280;10051;40.294;-3.754;2023-06-10T04:17:50;93974.59;;;18.87;100.00
19783;BME280;10051;40.294;-3.754;2023-06-10T04:20:16;93968.88;;;18.72;100.00
19783;BME280;10051;40.294;-3.754;2023-06-10T04:22:42;93984.50;;;18.86;100.00
19783;BME280;10051;40.294;-3.754;2023-06-10T04:25:09;93883.38;;;18.12;100.00
19783;BME280;10051;40.294;-3.754;2023-06-10T04:27:35;93940.69;;;18.47;100.00
19783;BME280;10051;40.294;-3.754;2023-06-10T04:30:02;93948.34;;;18.61;100.00
19783;BME280;10051;40.294;-3.754;2023-06-10T04:32:28;93971.97;;;18.75;100.00
19783;BME280;10051;40.294;-3.754;2023-06-10T04:34:54;93955.66;;;18.64;100.00
19783;BME280;10051;40.294;-3.754;2023-06-10T04:37:20;93974.84;;;18.82;100.00
19783;BME280;10051;40.294;-3.754;2023-06-10T04:39:46;93974.19;;;18.72;100.00
19783;BME280;10051;40.294;-3.754;2023-06-10T04:42:11;93968.00;;;18.68;100.00
19783;BME280;10051;40.294;-3.754;2023-06-10T04:44:37;93943.25;;;18.55;100.00
19783;BME280;10051;40.294;-3.754;2023-06-10T04:47:04;94003.69;;;18.92;100.00
19783;BME280;10051;40.294;-3.754;2023-06-10T04:49:30;94012.13;;;18.94;100.00
19783;BME280;10051;40.294;-3.754;2023-06-10T04:51:55;93966.31;;;18.64;100.00
19783;BME280;10051;40.294;-3.754;2023-06-10T04:54:21;94010.25;;;18.95;100.00
19783;BME280;10051;40.294;-3.754;2023-06-10T04:56:46;93943.25;;;18.55;100.00
19783;BME280;10051;40.294;-3.754;2023-06-10T04:59:12;93957.78;;;18.58;100.00
19783;BME280;10051;40.294;-3.754;2023-06-10T05:01:45;93974.75;;;18.66;100.00
19783;BME280;10051;40.294;-3.754;2023-06-10T05:04:10;93989.72;;;18.83;100.00
19783;BME280;10051;40.294;-3.754;2023-06-10T05:06:36;93980.38;;;18.77;100.00
19783;BME280;10051;40.294;-3.754;2023-06-10T05:09:02;93923.84;;;18.42;100.00
19783;BME280;10051;40.294;-3.754;2023-06-10T05:11:27;93972.31;;;18.73;100.00
19783;BME280;10051;40.294;-3.754;2023-06-10T05:13:53;93969.53;;;18.69;100.00
19783;BME280;10051;40.294;-3.754;2023-06-10T05:16:18;93963.56;;;18.72;100.00
19783;BME280;10051;40.294;-3.754;2023-06-10T05:18:44;93990.50;;;18.83;100.00
19783;BME280;10051;40.294;-3.754;2023-06-10T05:21:11;93922.72;;;18.43;100.00
19783;BME280;10051;40.294;-3.754;2023-06-10T05:23:37;93979.53;;;18.72;100.00
19783;BME280;10051;40.294;-3.754;2023-06-10T05:26:02;93990.06;;;18.69;100.00
19783;BME280;10051;40.294;-3.754;2023-06-10T05:28:28;94035.91;;;18.99;100.00
19783;BME280;10051;40.294;-3.754;2023-06-10T05:30:53;93967.53;;;18.54;100.00
19783;BME280;10051;40.294;-3.754;2023-06-10T05:33:19;94002.47;;;18.77;100.00
19783;BME280;10051;40.294;-3.754;2023-06-10T05:35:45;94014.91;;;18.85;100.00
19783;BME280;10051;40.294;-3.754;2023-06-10T05:38:10;94018.56;;;18.93;100.00
19783;BME280;10051;40.294;-3.754;2023-06-10T05:40:36;93970.97;;;18.67;100.00
19783;BME280;10051;40.294;-3.754;2023-06-10T05:43:01;94035.69;;;19.05;100.00
19783;BME280;10051;40.294;-3.754;2023-06-10T05:45:27;93998.81;;;18.82;100.00
19783;BME280;10051;40.294;-3.754;2023-06-10T05:47:53;94020.81;;;19.04;100.00
19783;BME280;10051;40.294;-3.754;2023-06-10T05:50:18;93980.72;;;18.75;100.00
19783;BME280;10051;40.294;-3.754;2023-06-10T05:52:44;93963.34;;;18.65;100.00
19783;BME280;10051;40.294;-3.754;2023-06-10T05:55:12;93986.16;;;18.79;100.00
19783;BME280;10051;40.294;-3.754;2023-06-10T05:57:41;94036.72;;;19.28;100.00
19783;BME280;10051;40.294;-3.754;2023-06-10T06:00:07;94002.81;;;19.00;100.00
19783;BME280;10051;40.294;-3.754;2023-06-10T06:02:33;94035.53;;;19.13;100.00
19783;BME280;10051;40.294;-3.754;2023-06-10T06:04:59;94031.97;;;19.22;100.00
19783;BME280;10051;40.294;-3.754;2023-06-10T06:07:24;93957.22;;;18.65;100.00
19783;BME280;10051;40.294;-3.754;2023-06-10T06:09:50;94016.22;;;19.04;100.00
19783;BME280;10051;40.294;-3.754;2023-06-10T06:12:15;93994.38;;;18.86;100.00
19783;BME280;10051;40.294;-3.754;2023-06-10T06:14:41;94044.50;;;19.34;100.00
19783;BME280;10051;40.294;-3.754;2023-06-10T06:17:07;94000.81;;;18.97;100.00
19783;BME280;10051;40.294;-3.754;2023-06-10T06:19:33;94048.72;;;19.35;100.00
19783;BME280;10051;40.294;-3.754;2023-06-10T06:21:59;94039.75;;;19.27;100.00
19783;BME280;10051;40.294;-3.754;2023-06-10T06:24:24;94045.63;;;19.32;100.00
19783;BME280;10051;40.294;-3.754;2023-06-10T06:26:50;94010.13;;;19.04;100.00
19783;BME280;10051;40.294;-3.754;2023-06-10T06:29:15;94054.72;;;19.31;100.00
19783;BME280;10051;40.294;-3.754;2023-06-10T06:31:41;94055.59;;;19.48;100.00
19783;BME280;10051;40.294;-3.754;2023-06-10T06:34:07;94053.13;;;19.55;100.00
19783;BME280;10051;40.294;-3.754;2023-06-10T06:36:32;94052.78;;;19.57;100.00
19783;BME280;10051;40.294;-3.754;2023-06-10T06:38:58;93975.81;;;19.02;100.00
19783;BME280;10051;40.294;-3.754;2023-06-10T06:41:26;94073.84;;;19.74;100.00
19783;BME280;10051;40.294;-3.754;2023-06-10T06:43:51;94060.50;;;19.74;100.00
19783;BME280;10051;40.294;-3.754;2023-06-10T06:46:17;94062.72;;;19.72;100.00
19783;BME280;10051;40.294;-3.754;2023-06-10T06:48:43;94038.44;;;19.61;100.00
19783;BME280;10051;40.294;-3.754;2023-06-10T06:51:08;94077.22;;;19.87;100.00
19783;BME280;10051;40.294;-3.754;2023-06-10T06:53:34;94063.72;;;19.68;100.00
19783;BME280;10051;40.294;-3.754;2023-06-10T06:56:01;94023.22;;;19.50;100.00
19783;BME280;10051;40.294;-3.754;2023-06-10T06:58:26;94040.00;;;19.63;100.00
19783;BME280;10051;40.294;-3.754;2023-06-10T07:00:52;94063.94;;;19.75;100.00
19783;BME280;10051;40.294;-3.754;2023-06-10T07:03:17;94063.50;;;19.73;100.00
19783;BME280;10051;40.294;-3.754;2023-06-10T07:05:43;94072.38;;;19.77;100.00
19783;BME280;10051;40.294;-3.754;2023-06-10T07:08:09;94002.44;;;19.27;100.00
19783;BME280;10051;40.294;-3.754;2023-06-10T07:10:34;94089.47;;;19.88;100.00
19783;BME280;10051;40.294;-3.754;2023-06-10T07:13:00;94085.34;;;19.91;99.68
19783;BME280;10051;40.294;-3.754;2023-06-10T07:15:25;94067.59;;;19.83;99.58
19783;BME280;10051;40.294;-3.754;2023-06-10T07:17:51;94086.25;;;19.83;99.81
19783;BME280;10051;40.294;-3.754;2023-06-10T07:20:17;94075.19;;;19.68;100.00
19783;BME280;10051;40.294;-3.754;2023-06-10T07:22:43;94071.72;;;19.68;100.00
19783;BME280;10051;40.294;-3.754;2023-06-10T07:25:09;94093.91;;;19.84;100.00
19783;BME280;10051;40.294;-3.754;2023-06-10T07:27:34;94050.84;;;19.70;100.00
19783;BME280;10051;40.294;-3.754;2023-06-10T07:30:03;93994.50;;;19.43;99.40
19783;BME280;10051;40.294;-3.754;2023-06-10T07:32:28;93998.00;;;19.59;97.96
19783;BME280;10051;40.294;-3.754;2023-06-10T07:34:54;94088.41;;;20.34;96.17
19783;BME280;10051;40.294;-3.754;2023-06-10T07:37:20;94041.84;;;20.03;94.67
19783;BME280;10051;40.294;-3.754;2023-06-10T07:39:45;94089.78;;;20.44;93.46
19783;BME280;10051;40.294;-3.754;2023-06-10T07:42:11;94086.97;;;20.53;92.79
19783;BME280;10051;40.294;-3.754;2023-06-10T07:44:36;94107.41;;;20.77;91.15
19783;BME280;10051;40.294;-3.754;2023-06-10T07:47:02;94010.88;;;20.30;89.73
19783;BME280;10051;40.294;-3.754;2023-06-10T07:49:28;94039.75;;;20.73;89.41
19783;BME280;10051;40.294;-3.754;2023-06-10T07:51:54;94069.34;;;21.16;87.59
19783;BME280;10051;40.294;-3.754;2023-06-10T07:54:20;94059.44;;;21.16;86.05
19783;BME280;10051;40.294;-3.754;2023-06-10T07:56:46;94101.03;;;21.49;85.33
19783;BME280;10051;40.294;-3.754;2023-06-10T07:59:13;94082.25;;;21.30;84.51
19783;BME280;10051;40.294;-3.754;2023-06-10T08:01:39;94082.78;;;21.35;84.48
19783;BME280;10051;40.294;-3.754;2023-06-10T08:04:05;94077.00;;;21.33;84.65
19783;BME280;10051;40.294;-3.754;2023-06-10T08:06:31;94068.13;;;21.29;84.16
19783;BME280;10051;40.294;-3.754;2023-06-10T08:08:56;94095.88;;;21.24;83.84
19783;BME280;10051;40.294;-3.754;2023-06-10T08:11:22;94049.88;;;20.99;84.80
19783;BME280;10051;40.294;-3.754;2023-06-10T08:13:47;94061.22;;;21.28;83.92
19783;BME280;10051;40.294;-3.754;2023-06-10T08:16:13;94100.03;;;21.74;82.51
19783;BME280;10051;40.294;-3.754;2023-06-10T08:18:39;94102.69;;;21.93;80.87
19783;BME280;10051;40.294;-3.754;2023-06-10T08:21:06;94101.28;;;21.99;80.31
19783;BME280;10051;40.294;-3.754;2023-06-10T08:23:31;94072.28;;;22.02;78.50
19783;BME280;10051;40.294;-3.754;2023-06-10T08:25:57;94092.69;;;22.30;77.19
19783;BME280;10051;40.294;-3.754;2023-06-10T08:28:23;94039.88;;;22.07;76.05
19783;BME280;10051;40.294;-3.754;2023-06-10T08:30:48;94036.06;;;22.08;75.18
19783;BME280;10051;40.294;-3.754;2023-06-10T08:33:14;94113.22;;;22.65;74.63
19783;BME280;10051;40.294;-3.754;2023-06-10T08:35:40;94106.47;;;22.51;73.36
19783;BME280;10051;40.294;-3.754;2023-06-10T08:38:06;94091.53;;;22.31;74.54
19783;BME280;10051;40.294;-3.754;2023-06-10T08:40:32;94079.78;;;22.16;76.02
19783;BME280;10051;40.294;-3.754;2023-06-10T08:43:25;94101.13;;;22.32;75.17
19783;BME280;10051;40.294;-3.754;2023-06-10T08:46:00;94106.06;;;22.49;75.21
19783;BME280;10051;40.294;-3.754;2023-06-10T08:48:29;94118.28;;;22.70;73.94
19783;BME280;10051;40.294;-3.754;2023-06-10T08:50:57;94105.31;;;22.72;73.16
19783;BME280;10051;40.294;-3.754;2023-06-10T08:53:23;94124.66;;;23.08;71.56
19783;BME280;10051;40.294;-3.754;2023-06-10T08:55:51;94108.84;;;23.03;69.99
19783;BME280;10051;40.294;-3.754;2023-06-10T08:58:17;94076.53;;;22.69;70.14
19783;BME280;10051;40.294;-3.754;2023-06-10T09:00:43;94071.78;;;22.58;70.42
19783;BME280;10051;40.294;-3.754;2023-06-10T09:03:10;94105.78;;;22.78;71.48
19783;BME280;10051;40.294;-3.754;2023-06-10T09:05:36;94132.31;;;22.86;72.33
19783;BME280;10051;40.294;-3.754;2023-06-10T09:08:05;94112.50;;;22.68;72.82
19783;BME280;10051;40.294;-3.754;2023-06-10T09:10:31;94032.53;;;22.04;71.30
19783;BME280;10051;40.294;-3.754;2023-06-10T09:12:57;94134.00;;;22.71;70.99
19783;BME280;10051;40.294;-3.754;2023-06-10T09:15:23;94057.31;;;22.20;71.08
19783;BME280;10051;40.294;-3.754;2023-06-10T09:17:48;94098.75;;;22.69;69.21
19783;BME280;10051;40.294;-3.754;2023-06-10T09:20:14;94111.53;;;23.03;67.33
19783;BME280;10051;40.294;-3.754;2023-06-10T09:22:45;94117.25;;;23.01;66.50
19783;BME280;10051;40.294;-3.754;2023-06-10T09:25:12;94140.09;;;23.18;67.08
19783;BME280;10051;40.294;-3.754;2023-06-10T09:27:52;94105.66;;;22.94;68.15
19783;BME280;10051;40.294;-3.754;2023-06-10T09:30:31;94132.38;;;23.13;67.55
19783;BME280;10051;40.294;-3.754;2023-06-10T09:33:00;94118.03;;;23.02;65.33
19783;BME280;10051;40.294;-3.754;2023-06-10T09:35:32;94055.28;;;22.56;65.23
19783;BME280;10051;40.294;-3.754;2023-06-10T09:37:59;94099.09;;;22.91;65.61
19783;BME280;10051;40.294;-3.754;2023-06-10T09:40:26;94139.53;;;23.29;66.54
19783;BME280;10051;40.294;-3.754;2023-06-10T09:42:58;94126.31;;;23.16;67.48
19783;BME280;10051;40.294;-3.754;2023-06-10T09:45:29;94080.56;;;22.82;65.00
19783;BME280;10051;40.294;-3.754;2023-06-10T09:47:56;94031.56;;;22.35;64.28
19783;BME280;10051;40.294;-3.754;2023-06-10T09:50:22;94135.19;;;22.97;64.72
19783;BME280;10051;40.294;-3.754;2023-06-10T09:52:48;94118.81;;;22.79;64.43
19783;BME280;10051;40.294;-3.754;2023-06-10T09:55:14;94136.13;;;22.85;64.20
19783;BME280;10051;40.294;-3.754;2023-06-10T09:57:40;94036.22;;;22.38;62.61
19783;BME280;10051;40.294;-3.754;2023-06-10T10:00:10;94133.75;;;23.27;62.87
19783;BME280;10051;40.294;-3.754;2023-06-10T10:02:50;94126.78;;;23.49;60.70
19783;BME280;10051;40.294;-3.754;2023-06-10T10:05:20;94107.59;;;23.47;59.93
19783;BME280;10051;40.294;-3.754;2023-06-10T10:07:49;94037.91;;;23.24;60.81
19783;BME280;10051;40.294;-3.754;2023-06-10T10:10:17;94131.72;;;24.01;59.88
19783;BME280;10051;40.294;-3.754;2023-06-10T10:12:46;94027.06;;;23.43;58.47
19783;BME280;10051;40.294;-3.754;2023-06-10T10:15:12;94133.88;;;24.22;57.83
19783;BME280;10051;40.294;-3.754;2023-06-10T10:17:42;94099.53;;;24.04;56.37
19783;BME280;10051;40.294;-3.754;2023-06-10T10:20:12;94121.91;;;24.16;55.14
19783;BME280;10051;40.294;-3.754;2023-06-10T10:22:39;94046.81;;;23.58;55.50
19783;BME280;10051;40.294;-3.754;2023-06-10T10:25:11;94110.50;;;23.96;56.91
19783;BME280;10051;40.294;-3.754;2023-06-10T10:30:30;94134.88;;;24.10;57.26
19783;BME280;10051;40.294;-3.754;2023-06-10T10:33:31;94128.38;;;24.11;56.49
19783;BME280;10051;40.294;-3.754;2023-06-10T10:35:58;94088.81;;;24.04;55.84
19783;BME280;10051;40.294;-3.754;2023-06-10T10:38:24;94114.84;;;24.38;55.04
19783;BME280;10051;40.294;-3.754;2023-06-10T10:40:51;94069.47;;;24.26;55.51
19783;BME280;10051;40.294;-3.754;2023-06-10T10:43:17;94130.53;;;24.70;55.51
19783;BME280;10051;40.294;-3.754;2023-06-10T10:45:46;94076.59;;;24.52;54.35
19783;BME280;10051;40.294;-3.754;2023-06-10T10:48:12;94072.09;;;24.63;53.71
19783;BME280;10051;40.294;-3.754;2023-06-10T10:50:39;94129.34;;;25.09;53.60
19783;BME280;10051;40.294;-3.754;2023-06-10T10:53:05;94129.06;;;25.21;50.57
19783;BME280;10051;40.294;-3.754;2023-06-10T10:55:32;94088.94;;;25.02;51.67
19783;BME280;10051;40.294;-3.754;2023-06-10T10:57:59;94123.34;;;25.30;51.19
19783;BME280;10051;40.294;-3.754;2023-06-10T11:00:34;94116.41;;;25.29;50.33
19783;BME280;10051;40.294;-3.754;2023-06-10T11:03:06;94108.00;;;25.31;51.01
19783;BME280;10051;40.294;-3.754;2023-06-10T11:05:38;94113.38;;;25.31;49.57
19783;BME280;10051;40.294;-3.754;2023-06-10T11:08:05;94101.00;;;25.22;48.77
19783;BME280;10051;40.294;-3.754;2023-06-10T11:10:36;94109.56;;;25.39;45.84
19783;BME280;10051;40.294;-3.754;2023-06-10T11:13:14;94112.66;;;25.41;49.77
19783;BME280;10051;40.294;-3.754;2023-06-10T11:15:45;94082.47;;;25.10;50.64
19783;BME280;10051;40.294;-3.754;2023-06-10T11:18:15;94106.81;;;25.28;52.23
19783;BME280;10051;40.294;-3.754;2023-06-10T11:20:51;94078.63;;;25.11;52.97
19783;BME280;10051;40.294;-3.754;2023-06-10T11:31:26;94060.84;;;25.48;52.72
19783;BME280;10051;40.294;-3.754;2023-06-10T11:33:56;94095.22;;;25.83;50.85
19783;BME280;10051;40.294;-3.754;2023-06-10T11:36:26;94001.13;;;25.28;50.08
19783;BME280;10051;40.294;-3.754;2023-06-10T11:38:59;94084.06;;;25.81;47.45
19783;BME280;10051;40.294;-3.754;2023-06-10T11:41:26;94084.38;;;25.69;50.52
19783;BME280;10051;40.294;-3.754;2023-06-10T11:43:53;94070.59;;;25.81;50.45
19783;BME280;10051;40.294;-3.754;2023-06-10T11:46:21;94005.06;;;25.48;49.66
19783;BME280;10051;40.294;-3.754;2023-06-10T11:48:53;94050.97;;;25.77;48.86
19783;BME280;10051;40.294;-3.754;2023-06-10T11:51:20;94042.47;;;25.72;49.30
19783;BME280;10051;40.294;-3.754;2023-06-10T11:53:49;94083.00;;;26.04;46.61
19783;BME280;10051;40.294;-3.754;2023-06-10T11:56:26;94022.91;;;25.78;48.02
19783;BME280;10051;40.294;-3.754;2023-06-10T11:59:00;94084.59;;;26.20;49.95
19783;BME280;10051;40.294;-3.754;2023-06-10T12:01:36;94028.34;;;25.96;49.34
19783;BME280;10051;40.294;-3.754;2023-06-10T12:04:08;94073.09;;;26.41;47.14
19783;BME280;10051;40.294;-3.754;2023-06-10T12:06:49;94088.53;;;26.55;46.45
19783;BME280;10051;40.294;-3.754;2023-06-10T12:09:23;94080.03;;;26.56;47.18
19783;BME280;10051;40.294;-3.754;2023-06-10T12:11:52;93997.56;;;25.97;46.38
19783;BME280;10051;40.294;-3.754;2023-06-10T12:19:55;93992.56;;;26.00;46.65
19783;BME280;10051;40.294;-3.754;2023-06-10T12:22:21;94032.31;;;26.50;45.94
19783;BME280;10051;40.294;-3.754;2023-06-10T12:25:02;94062.72;;;26.76;45.60
19783;BME280;10051;40.294;-3.754;2023-06-10T12:27:29;94024.22;;;26.61;45.96
19783;BME280;10051;40.294;-3.754;2023-06-10T12:29:56;94073.16;;;26.99;45.70
19783;BME280;10051;40.294;-3.754;2023-06-10T12:32:55;94072.41;;;26.98;43.61
19783;BME280;10051;40.294;-3.754;2023-06-10T12:35:23;94046.59;;;26.90;42.47
19783;BME280;10051;40.294;-3.754;2023-06-10T12:37:59;94066.63;;;26.96;43.78
19783;BME280;10051;40.294;-3.754;2023-06-10T12:40:43;94042.31;;;26.71;43.99
19783;BME280;10051;40.294;-3.754;2023-06-10T12:43:12;94060.81;;;26.80;43.42
19783;BME280;10051;40.294;-3.754;2023-06-10T12:45:39;94036.94;;;26.60;43.91
19783;BME280;10051;40.294;-3.754;2023-06-10T12:48:06;94005.31;;;26.35;44.66
19783;BME280;10051;40.294;-3.754;2023-06-10T12:50:38;94049.69;;;26.81;44.21
19783;BME280;10051;40.294;-3.754;2023-06-10T12:53:04;94059.28;;;26.86;43.63
19783;BME280;10051;40.294;-3.754;2023-06-10T12:55:31;94053.13;;;26.78;44.64
19783;BME280;10051;40.294;-3.754;2023-06-10T12:57:58;94050.81;;;26.69;44.08
19783;BME280;10051;40.294;-3.754;2023-06-10T13:00:24;93978.75;;;26.37;44.15
19783;BME280;10051;40.294;-3.754;2023-06-10T13:02:54;94047.34;;;26.87;42.57
19783;BME280;10051;40.294;-3.754;2023-06-10T13:05:19;94006.88;;;26.72;42.10
19783;BME280;10051;40.294;-3.754;2023-06-10T13:07:46;93997.63;;;26.73;42.05